UAL224 KLAX-KLAS
Flight info
| Callsign | UAL224 |
|---|---|
| Flight time | N/A |
| Altitude | 29000 |
| Route | ORCKA5 MISEN RNDRZ4 |
| Aircraft | B772/H-SDE2E3FGHIJ5LORVWXY/LB1D1 |
Departure
| Time | 2026-04-26 00:36 |
|---|---|
| Airport | Los Angeles International Airport (KLAX) |
Arrival
| Time | N/A |
|---|---|
| Airport | Harry Reid International Airport (KLAS) |
| Time | Latitude | Longitude | Altitude | Speed | Heading |
|---|---|---|---|---|---|
| 2026-04-26 00:05 | 33.94105 | -118.39895 | 109 ft | 0 kts | 306° |
| 2026-04-26 00:26 | 33.94100 | -118.39886 | 100 ft | 4 kts | 306° |
| 2026-04-26 00:26 | 33.94087 | -118.39865 | 102 ft | 3 kts | 276° |
| 2026-04-26 00:26 | 33.94101 | -118.39831 | 99 ft | 9 kts | 181° |
| 2026-04-26 00:26 | 33.94130 | -118.39832 | 99 ft | 0 kts | 164° |
| 2026-04-26 00:27 | 33.94154 | -118.39839 | 99 ft | 0 kts | 163° |
| 2026-04-26 00:29 | 33.94123 | -118.39831 | 99 ft | 7 kts | 171° |
| 2026-04-26 00:29 | 33.94077 | -118.39826 | 101 ft | 6 kts | 180° |
| 2026-04-26 00:29 | 33.94034 | -118.39825 | 101 ft | 7 kts | 176° |
| 2026-04-26 00:30 | 33.93961 | -118.39812 | 101 ft | 12 kts | 164° |
| 2026-04-26 00:30 | 33.93910 | -118.39750 | 108 ft | 16 kts | 109° |
| 2026-04-26 00:30 | 33.93918 | -118.39606 | 107 ft | 18 kts | 82° |
| 2026-04-26 00:30 | 33.93933 | -118.39458 | 107 ft | 18 kts | 84° |
| 2026-04-26 00:31 | 33.93949 | -118.39306 | 106 ft | 19 kts | 83° |
| 2026-04-26 00:31 | 33.93963 | -118.39167 | 108 ft | 14 kts | 84° |
| 2026-04-26 00:31 | 33.93974 | -118.39055 | 106 ft | 13 kts | 82° |
| 2026-04-26 00:31 | 33.93986 | -118.38941 | 106 ft | 15 kts | 83° |
| 2026-04-26 00:32 | 33.94000 | -118.38806 | 108 ft | 13 kts | 83° |
| 2026-04-26 00:32 | 33.94015 | -118.38667 | 107 ft | 17 kts | 83° |
| 2026-04-26 00:32 | 33.94039 | -118.38425 | 108 ft | 13 kts | 83° |
| 2026-04-26 00:33 | 33.94049 | -118.38320 | 108 ft | 12 kts | 83° |
| 2026-04-26 00:33 | 33.94060 | -118.38224 | 108 ft | 11 kts | 83° |
| 2026-04-26 00:33 | 33.94074 | -118.38083 | 107 ft | 13 kts | 83° |
| 2026-04-26 00:33 | 33.94045 | -118.38008 | 109 ft | 7 kts | 153° |
| 2026-04-26 00:34 | 33.94005 | -118.38006 | 112 ft | 7 kts | 200° |
| 2026-04-26 00:34 | 33.93981 | -118.38068 | 113 ft | 7 kts | 262° |
| 2026-04-26 00:34 | 33.93979 | -118.38080 | 114 ft | 0 kts | 262° |
| 2026-04-26 00:35 | 33.93966 | -118.38210 | 111 ft | 43 kts | 263° |
| 2026-04-26 00:36 | 33.93890 | -118.38935 | 114 ft | 131 kts | 263° |
| 2026-04-26 00:36 | 33.93757 | -118.40225 | 425 ft | 183 kts | 263° |
| 2026-04-26 00:36 | 33.93580 | -118.42015 | 699 ft | 235 kts | 262° |
| 2026-04-26 00:36 | 33.93399 | -118.43903 | 952 ft | 218 kts | 263° |
| 2026-04-26 00:37 | 33.93238 | -118.45640 | 1202 ft | 207 kts | 264° |
| 2026-04-26 00:37 | 33.93030 | -118.47303 | 1511 ft | 198 kts | 258° |
| 2026-04-26 00:37 | 33.92659 | -118.48905 | 1697 ft | 198 kts | 251° |
| 2026-04-26 00:37 | 33.92136 | -118.50448 | 1873 ft | 198 kts | 246° |
| 2026-04-26 00:38 | 33.91587 | -118.51972 | 2006 ft | 200 kts | 248° |
| 2026-04-26 00:38 | 33.91032 | -118.53511 | 2181 ft | 200 kts | 247° |
| 2026-04-26 00:38 | 33.90473 | -118.55010 | 2601 ft | 192 kts | 240° |
| 2026-04-26 00:38 | 33.89601 | -118.56182 | 3321 ft | 186 kts | 216° |
| 2026-04-26 00:39 | 33.88423 | -118.56765 | 4052 ft | 186 kts | 191° |
| 2026-04-26 00:39 | 33.87049 | -118.56677 | 4322 ft | 223 kts | 166° |
| 2026-04-26 00:39 | 33.85719 | -118.55642 | 4908 ft | 238 kts | 128° |
| 2026-04-26 00:39 | 33.84991 | -118.53700 | 4771 ft | 289 kts | 98° |
| 2026-04-26 00:40 | 33.85299 | -118.51389 | 4855 ft | 265 kts | 71° |
| 2026-04-26 00:40 | 33.85454 | -118.49260 | 5354 ft | 255 kts | 86° |
| 2026-04-26 00:40 | 33.86116 | -118.47270 | 6166 ft | 270 kts | 47° |
| 2026-04-26 00:40 | 33.87734 | -118.45966 | 6443 ft | 288 kts | 15° |